Time;durP1;ratioP1;P1;durP2;ratioP2;P2;SDS_P1;SDS_P2;PMS_P1;PMS_P2;Temp;Humidity;BMP_temperature;BMP_pressure;BME280_temperature;BME280_humidity;BME280_pressure;Samples;Min_cycle;Max_cycle;Signal;HPM_P1;HPM_P2
2024/03/01 00:01:01;;;;;;;34.00;21.13;;;;;;;5.17;100.00;152689.22;5049635;28;20454;-78
2024/03/01 00:03:28;;;;;;;28.40;19.37;;;;;;;5.18;100.00;152693.09;5044692;28;20495;-79
2024/03/01 00:05:55;;;;;;;28.23;18.93;;;;;;;5.19;100.00;152694.41;5047339;28;20440;-79
2024/03/01 00:08:21;;;;;;;30.37;21.50;;;;;;;5.21;100.00;152699.56;5040542;28;20525;-78
2024/03/01 00:10:48;;;;;;;27.37;18.77;;;;;;;5.23;100.00;152704.69;5048675;28;20467;-79
2024/03/01 00:13:14;;;;;;;36.23;20.63;;;;;;;5.26;100.00;152712.44;5046326;28;20813;-79
2024/03/01 00:15:41;;;;;;;29.20;19.93;;;;;;;5.28;100.00;152717.59;5038925;28;21141;-78
2024/03/01 00:18:08;;;;;;;34.97;22.47;;;;;;;5.32;100.00;152727.91;5041183;28;20526;-79
2024/03/01 00:20:35;;;;;;;29.47;19.20;;;;;;;5.36;100.00;152738.22;5043318;28;20481;-78
2024/03/01 00:23:01;;;;;;;34.73;20.40;;;;;;;5.38;100.00;152743.34;5044746;28;20505;-78
2024/03/01 00:25:28;;;;;;;34.47;21.37;;;;;;;5.38;100.00;152743.34;5041784;28;20458;-78
2024/03/01 00:27:55;;;;;;;29.53;19.87;;;;;;;5.47;100.00;152766.59;5046850;28;20443;-78
2024/03/01 00:30:22;;;;;;;30.37;21.47;;;;;;;5.47;100.00;152767.88;5027210;28;20446;-78
2024/03/01 00:32:48;;;;;;;36.53;20.43;;;;;;;5.49;100.00;152773.03;5028998;28;20458;-78
2024/03/01 00:35:16;;;;;;;32.27;22.23;;;;;;;5.50;100.00;152775.63;5045584;28;20435;-78
2024/03/01 00:37:43;;;;;;;35.20;21.90;;;;;;;5.50;100.00;152774.31;5044409;28;21044;-78
2024/03/01 00:40:10;;;;;;;34.80;21.77;;;;;;;5.50;100.00;152774.31;5045716;28;20496;-78
2024/03/01 00:42:36;;;;;;;34.73;21.53;;;;;;;5.50;100.00;152774.31;5041898;28;20462;-78
2024/03/01 00:45:04;;;;;;;35.33;21.30;;;;;;;5.50;100.00;152774.31;5044045;28;20454;-78
2024/03/01 00:47:30;;;;;;;29.40;19.40;;;;;;;5.48;100.00;152769.19;5046043;28;20469;-78
2024/03/01 00:49:57;;;;;;;36.87;22.63;;;;;;;5.46;100.00;152764.00;5046433;28;20435;-78
2024/03/01 00:52:24;;;;;;;30.37;20.67;;;;;;;5.43;100.00;152756.25;5047321;28;20443;-78
2024/03/01 00:54:52;;;;;;;29.77;19.63;;;;;;;5.39;100.00;152745.94;5042742;28;20536;-78
2024/03/01 00:57:19;;;;;;;33.13;21.50;;;;;;;5.32;100.00;152729.16;5046789;28;20477;-78
2024/03/01 00:59:45;;;;;;;31.30;20.87;;;;;;;5.30;100.00;152724.03;5046297;28;20512;-78
2024/03/01 01:02:12;;;;;;;32.20;20.47;;;;;;;5.27;100.00;152715.03;5045419;28;20789;-78
2024/03/01 01:04:39;;;;;;;27.17;19.33;;;;;;;5.22;100.00;152703.41;5043724;28;20473;-78
2024/03/01 01:07:06;;;;;;;32.00;20.87;;;;;;;5.24;100.00;152707.28;5044479;28;20506;-78
2024/03/01 01:09:33;;;;;;;32.60;20.00;;;;;;;5.23;100.00;152706.00;5045915;28;20431;-78
2024/03/01 01:12:00;;;;;;;35.93;21.67;;;;;;;5.23;100.00;152706.00;5043479;28;20493;-78
2024/03/01 01:14:26;;;;;;;31.43;21.67;;;;;;;5.21;100.00;152699.56;5046279;28;20766;-78
2024/03/01 01:16:53;;;;;;;32.83;19.50;;;;;;;5.16;100.00;152687.97;5044557;28;20447;-78
2024/03/01 01:19:19;;;;;;;31.97;20.70;;;;;;;5.18;100.00;152691.81;5046082;28;20470;-78
2024/03/01 01:21:46;;;;;;;33.20;22.40;;;;;;;5.20;100.00;152696.94;5044150;28;20482;-78
2024/03/01 01:24:12;;;;;;;33.80;22.07;;;;;;;5.20;100.00;152698.25;5044262;28;20504;-78
2024/03/01 01:26:40;;;;;;;33.33;21.83;;;;;;;5.22;100.00;152702.09;5064227;28;21230;-78
2024/03/01 01:29:07;;;;;;;35.33;22.70;;;;;;;5.25;100.00;152709.84;5045634;28;20585;-79
2024/03/01 01:31:33;;;;;;;35.27;22.63;;;;;;;5.29;100.00;152720.19;5044996;28;20520;-78
2024/03/01 01:34:00;;;;;;;36.47;22.33;;;;;;;5.32;100.00;152729.16;5046323;28;20942;-78
2024/03/01 01:36:26;;;;;;;29.53;19.70;;;;;;;5.33;100.00;152730.47;5030955;28;20476;-79
2024/03/01 01:38:53;;;;;;;36.37;22.33;;;;;;;5.35;100.00;152736.91;5046179;28;20466;-78
2024/03/01 01:41:19;;;;;;;33.03;22.60;;;;;;;5.33;100.00;152730.47;5049759;28;20805;-79
2024/03/01 01:43:47;;;;;;;31.30;20.80;;;;;;;5.36;100.00;152738.22;5045510;28;20466;-78
2024/03/01 01:46:16;;;;;;;32.70;18.90;;;;;;;5.37;100.00;152740.81;5055289;28;20450;-78
2024/03/01 01:48:43;;;;;;;32.33;21.60;;;;;;;5.38;100.00;152743.34;5048731;28;20800;-78
2024/03/01 01:51:10;;;;;;;34.63;21.60;;;;;;;5.38;100.00;152743.34;5045441;28;20488;-77
2024/03/01 01:53:37;;;;;;;33.00;20.97;;;;;;;5.39;100.00;152745.94;5045445;28;20462;-78
2024/03/01 01:56:04;;;;;;;34.07;21.57;;;;;;;5.41;100.00;152751.09;5049029;28;20893;-78
2024/03/01 01:58:33;;;;;;;31.00;19.70;;;;;;;5.41;100.00;152751.09;5037710;28;20528;-78
2024/03/01 02:01:01;;;;;;;30.40;19.87;;;;;;;5.41;100.00;152751.09;5047072;28;20453;-79
2024/03/01 02:03:28;;;;;;;34.60;21.50;;;;;;;5.41;100.00;152752.41;5049441;28;20520;-79
2024/03/01 02:05:55;;;;;;;32.23;20.00;;;;;;;5.42;100.00;152755.00;5046054;28;20467;-78
2024/03/01 02:08:22;;;;;;;34.33;20.70;;;;;;;5.46;100.00;152764.00;5049169;28;20478;-78
2024/03/01 02:10:48;;;;;;;32.33;19.77;;;;;;;5.49;100.00;152771.72;5046941;28;20462;-78
2024/03/01 02:13:18;;;;;;;28.43;18.83;;;;;;;5.51;100.00;152776.88;5045399;28;20457;-78
2024/03/01 02:15:45;;;;;;;33.23;21.13;;;;;;;5.54;100.00;152784.63;5042306;28;20543;-78
2024/03/01 02:18:13;;;;;;;32.20;21.57;;;;;;;5.57;100.00;152791.06;5049191;28;20475;-78
2024/03/01 02:20:48;;;;;;;36.17;21.60;;;;;;;5.59;100.00;152796.25;5048153;28;20447;-78
2024/03/01 02:23:17;;;;;;;31.60;19.47;;;;;;;5.59;100.00;152797.50;5046997;28;20454;-78
2024/03/01 02:25:44;;;;;;;33.90;20.37;;;;;;;5.58;100.00;152794.97;5040860;28;20505;-78
2024/03/01 02:28:10;;;;;;;28.17;19.77;;;;;;;5.58;100.00;152793.66;5064037;28;20435;-78
2024/03/01 02:30:37;;;;;;;27.57;19.17;;;;;;;5.58;100.00;152794.97;5047536;28;20529;-78
2024/03/01 02:33:04;;;;;;;29.20;20.10;;;;;;;5.56;100.00;152789.75;5049380;28;20439;-78
2024/03/01 02:35:30;;;;;;;30.83;20.27;;;;;;;5.56;100.00;152789.75;5041325;28;20451;-78
2024/03/01 02:37:57;;;;;;;31.10;19.13;;;;;;;5.57;100.00;152792.38;5045461;28;20487;-78
2024/03/01 02:40:25;;;;;;;30.00;20.47;;;;;;;5.58;100.00;152793.66;5041371;28;20449;-77
2024/03/01 02:42:51;;;;;;;33.40;21.30;;;;;;;5.58;100.00;152793.66;5026425;28;20513;-77
2024/03/01 02:45:18;;;;;;;32.57;19.07;;;;;;;5.59;100.00;152796.25;5040434;28;20455;-79
2024/03/01 02:47:44;;;;;;;31.57;20.90;;;;;;;5.61;100.00;152802.72;5039244;28;20464;-79
2024/03/01 02:50:11;;;;;;;29.93;19.50;;;;;;;5.63;100.00;152807.84;5041098;28;20436;-78
2024/03/01 02:52:38;;;;;;;32.67;20.50;;;;;;;5.63;100.00;152807.84;5037774;28;20447;-79
2024/03/01 02:55:05;;;;;;;29.10;20.50;;;;;;;5.65;100.00;152811.69;5040767;28;20452;-78
2024/03/01 02:57:33;;;;;;;33.20;19.83;;;;;;;5.67;100.00;152816.84;5037381;28;20553;-79
2024/03/01 03:00:00;;;;;;;27.37;20.63;;;;;;;5.69;100.00;152822.03;5023224;28;20451;-79
2024/03/01 03:02:27;;;;;;;35.07;20.07;;;;;;;5.70;100.00;152825.88;5044374;28;20453;-78
2024/03/01 03:04:53;;;;;;;34.13;20.60;;;;;;;5.71;100.00;152828.47;5043818;28;20459;-78
2024/03/01 03:07:20;;;;;;;29.37;19.53;;;;;;;5.70;100.00;152825.88;5045149;28;20557;-79
2024/03/01 03:09:46;;;;;;;31.43;20.43;;;;;;;5.70;100.00;152825.88;5046469;28;20854;-79
2024/03/01 03:12:13;;;;;;;30.17;20.67;;;;;;;5.70;100.00;152825.88;5040451;28;20522;-79
2024/03/01 03:14:41;;;;;;;34.63;20.57;;;;;;;5.73;100.00;152832.34;5046130;28;20470;-78
2024/03/01 03:17:08;;;;;;;28.93;20.03;;;;;;;5.74;100.00;152834.94;5043231;28;20454;-78
2024/03/01 03:19:35;;;;;;;33.60;20.40;;;;;;;5.76;100.00;152841.38;5044431;28;20485;-79
2024/03/01 03:22:06;;;;;;;31.90;20.57;;;;;;;5.75;100.00;152838.78;5048714;28;20454;-79
2024/03/01 03:24:32;;;;;;;28.63;19.50;;;;;;;5.63;100.00;152807.84;5043588;28;20957;-78
2024/03/01 03:26:59;;;;;;;33.13;19.53;;;;;;;5.61;100.00;152802.72;5040643;28;20466;-79
2024/03/01 03:29:25;;;;;;;32.13;20.77;;;;;;;5.61;100.00;152802.72;5046985;28;20769;-78
2024/03/01 03:31:53;;;;;;;31.17;20.20;;;;;;;5.61;100.00;152801.41;5044220;28;20455;-78
2024/03/01 03:34:20;;;;;;;29.40;19.50;;;;;;;5.59;100.00;152797.50;5048678;28;20435;-79
2024/03/01 03:36:46;;;;;;;32.57;19.60;;;;;;;5.59;100.00;152797.50;5039067;28;20543;-79
2024/03/01 03:39:12;;;;;;;34.50;21.33;;;;;;;5.59;100.00;152797.50;5040172;28;20466;-79
2024/03/01 03:41:39;;;;;;;34.20;21.10;;;;;;;5.54;100.00;152784.63;5050379;28;20447;-78
2024/03/01 03:44:05;;;;;;;30.50;20.00;;;;;;;5.51;100.00;152778.19;5030564;28;20474;-79
2024/03/01 03:46:32;;;;;;;28.37;19.80;;;;;;;5.50;100.00;152775.63;5046071;28;20454;-79
2024/03/01 03:49:00;;;;;;;37.13;22.07;;;;;;;5.49;100.00;152773.03;5027342;28;20465;-79
2024/03/01 03:51:27;;;;;;;30.30;20.87;;;;;;;5.47;100.00;152766.59;5046827;28;20422;-79
2024/03/01 03:53:54;;;;;;;36.13;21.20;;;;;;;5.47;100.00;152766.59;5042670;28;20433;-79
2024/03/01 03:56:21;;;;;;;31.23;20.93;;;;;;;5.45;100.00;152762.69;5043252;28;20477;-79
2024/03/01 03:58:48;;;;;;;31.00;21.83;;;;;;;5.45;100.00;152761.44;5043657;28;20463;-79
2024/03/01 04:01:14;;;;;;;35.20;21.97;;;;;;;5.44;100.00;152758.84;5044743;28;20435;-78
2024/03/01 04:03:41;;;;;;;37.60;21.40;;;;;;;5.44;100.00;152760.13;5041359;28;20447;-79
2024/03/01 04:06:09;;;;;;;33.10;21.17;;;;;;;5.42;100.00;152753.69;5044598;28;20454;-79
2024/03/01 04:08:37;;;;;;;28.40;20.00;;;;;;;5.39;100.00;152745.94;5047499;28;20540;-79
2024/03/01 04:11:05;;;;;;;30.30;20.57;;;;;;;5.41;100.00;152751.09;5043067;28;20455;-79
2024/03/01 04:13:32;;;;;;;33.37;20.60;;;;;;;5.39;100.00;152745.94;5043843;28;20463;-79
2024/03/01 04:15:58;;;;;;;36.53;21.80;;;;;;;5.39;100.00;152745.94;5045097;28;20988;-79
2024/03/01 04:18:27;;;;;;;33.13;21.40;;;;;;;5.40;100.00;152748.56;5046439;28;20529;-78
2024/03/01 04:20:54;;;;;;;35.67;22.80;;;;;;;5.39;100.00;152745.94;5046890;28;20801;-79
2024/03/01 04:23:22;;;;;;;32.70;21.00;;;;;;;5.36;100.00;152738.22;5044081;28;20462;-79
2024/03/01 04:25:51;;;;;;;30.63;20.77;;;;;;;5.36;100.00;152739.50;5047838;28;21039;-79
2024/03/01 04:28:17;;;;;;;34.43;20.17;;;;;;;5.38;100.00;152743.34;5042823;28;20976;-79
2024/03/01 04:30:44;;;;;;;31.57;19.70;;;;;;;5.38;100.00;152743.34;5046408;28;20446;-79
2024/03/01 04:33:11;;;;;;;30.57;20.50;;;;;;;5.38;100.00;152743.34;5043416;28;20457;-78
2024/03/01 04:35:37;;;;;;;26.30;18.40;;;;;;;5.38;100.00;152743.34;5063671;28;20525;-79
2024/03/01 04:38:05;;;;;;;30.93;20.90;;;;;;;5.40;100.00;152748.56;5047387;28;20500;-78
2024/03/01 04:40:33;;;;;;;32.53;21.97;;;;;;;5.41;100.00;152752.41;5045008;28;20458;-79
2024/03/01 04:42:59;;;;;;;31.43;20.67;;;;;;;5.43;100.00;152756.25;5044974;28;20466;-79
2024/03/01 04:45:26;;;;;;;29.40;19.07;;;;;;;5.42;100.00;152753.69;5045666;28;20439;-79
2024/03/01 04:47:53;;;;;;;34.83;21.03;;;;;;;5.44;100.00;152758.84;5044825;28;20451;-79
2024/03/01 04:50:19;;;;;;;33.50;19.80;;;;;;;5.45;100.00;152761.44;5042625;28;20473;-78
2024/03/01 04:52:46;;;;;;;32.67;19.20;;;;;;;5.46;100.00;152764.00;5026887;28;20468;-79
2024/03/01 04:55:13;;;;;;;35.87;22.03;;;;;;;5.45;100.00;152762.69;5028454;28;20529;-78
2024/03/01 04:57:41;;;;;;;32.07;19.87;;;;;;;5.46;100.00;152764.00;5042263;28;20500;-78
2024/03/01 05:00:12;;;;;;;32.40;21.57;;;;;;;5.46;100.00;152764.00;5041391;28;21121;-79
2024/03/01 05:02:40;;;;;;;28.30;19.37;;;;;;;5.44;100.00;152758.84;5044081;28;20493;-79
2024/03/01 05:05:08;;;;;;;33.47;20.87;;;;;;;5.44;100.00;152758.84;5024710;28;20969;-78
2024/03/01 05:07:34;;;;;;;33.10;20.60;;;;;;;5.45;100.00;152761.44;5044654;28;20814;-78
2024/03/01 05:10:08;;;;;;;37.17;22.30;;;;;;;5.45;100.00;152761.44;5048254;28;20459;-79
2024/03/01 05:12:36;;;;;;;31.33;20.07;;;;;;;5.46;100.00;152764.00;5032641;28;20462;-79
2024/03/01 05:15:05;;;;;;;30.27;20.97;;;;;;;5.45;100.00;152761.44;5048605;28;20474;-78
2024/03/01 05:17:32;;;;;;;33.73;21.77;;;;;;;5.46;100.00;152764.00;5048491;28;20442;-78
2024/03/01 05:19:58;;;;;;;27.57;17.90;;;;;;;5.47;100.00;152766.59;5047854;28;20475;-78
2024/03/01 05:22:24;;;;;;;31.30;19.17;;;;;;;5.46;100.00;152764.00;5048912;28;20572;-79
2024/03/01 05:24:51;;;;;;;26.90;19.23;;;;;;;5.46;100.00;152764.00;5047687;28;20462;-78
2024/03/01 05:27:18;;;;;;;29.10;20.33;;;;;;;5.48;100.00;152769.19;5045357;28;20821;-78
2024/03/01 05:29:44;;;;;;;26.17;19.07;;;;;;;5.49;100.00;152771.72;5051887;28;20439;-78
2024/03/01 05:32:12;;;;;;;36.50;21.97;;;;;;;5.48;100.00;152770.44;5055499;28;20510;-79
2024/03/01 05:34:39;;;;;;;29.27;19.77;;;;;;;5.48;100.00;152769.19;5050442;28;20453;-78
2024/03/01 05:37:06;;;;;;;31.10;20.87;;;;;;;5.48;100.00;152769.19;5043216;28;20710;-78
2024/03/01 05:39:32;;;;;;;31.60;20.50;;;;;;;5.49;100.00;152771.72;5054431;28;21003;-78
2024/03/01 05:41:59;;;;;;;29.70;18.93;;;;;;;5.49;100.00;152771.72;5045842;28;20459;-78
2024/03/01 05:47:57;;;;;;;28.43;19.30;;;;;;;5.48;100.00;152769.19;5044103;28;20883;-77
2024/03/01 05:50:23;;;;;;;29.07;20.17;;;;;;;5.50;100.00;152775.63;5060303;28;20426;-78
2024/03/01 05:52:50;;;;;;;31.83;21.20;;;;;;;5.43;100.00;152757.53;5048598;28;21000;-78
2024/03/01 05:55:16;;;;;;;29.53;21.07;;;;;;;5.45;100.00;152762.69;5049149;28;20455;-78
2024/03/01 05:57:46;;;;;;;29.53;21.57;;;;;;;5.46;100.00;152765.28;5051979;28;20461;-78
2024/03/01 06:00:19;;;;;;;29.03;19.90;;;;;;;5.46;100.00;152765.28;5049453;28;20474;-77
2024/03/01 06:02:46;;;;;;;30.60;20.70;;;;;;;5.44;100.00;152760.13;5050083;28;20447;-78
2024/03/01 06:05:14;;;;;;;30.13;19.80;;;;;;;5.43;100.00;152756.25;5044182;28;21341;-78
2024/03/01 06:07:41;;;;;;;34.13;20.27;;;;;;;5.41;100.00;152751.09;5037895;28;20482;-78
2024/03/01 06:10:08;;;;;;;31.37;21.30;;;;;;;5.43;100.00;152756.25;5039375;28;20451;-78
2024/03/01 06:12:35;;;;;;;29.27;20.30;;;;;;;5.40;100.00;152748.56;5021429;28;20482;-78
2024/03/01 06:15:01;;;;;;;30.43;19.80;;;;;;;5.38;100.00;152743.34;5037490;28;20546;-78
2024/03/01 06:17:28;;;;;;;33.83;21.50;;;;;;;5.38;100.00;152743.34;5039681;28;21023;-78
2024/03/01 06:19:54;;;;;;;31.27;21.00;;;;;;;5.38;100.00;152743.34;5040176;28;20889;-77
2024/03/01 06:22:22;;;;;;;37.83;21.57;;;;;;;5.40;100.00;152748.56;5043161;28;20460;-77
2024/03/01 06:24:49;;;;;;;35.07;20.70;;;;;;;5.38;100.00;152743.34;5038722;28;20452;-78
2024/03/01 06:27:15;;;;;;;33.43;20.63;;;;;;;5.38;100.00;152743.34;5052055;28;20459;-78
2024/03/01 06:29:42;;;;;;;28.40;19.47;;;;;;;5.40;100.00;152748.56;5039904;28;20451;-78
2024/03/01 06:32:11;;;;;;;30.13;21.90;;;;;;;5.40;100.00;152749.81;5038081;28;20879;-78
2024/03/01 06:34:38;;;;;;;30.60;21.50;;;;;;;5.42;100.00;152753.69;5038462;28;20464;-78
2024/03/01 06:37:04;;;;;;;33.60;20.70;;;;;;;5.45;100.00;152762.69;5039097;28;20884;-78
2024/03/01 06:39:32;;;;;;;35.60;21.90;;;;;;;5.46;100.00;152765.28;5038201;28;20479;-78
2024/03/01 06:41:59;;;;;;;30.97;19.30;;;;;;;5.50;100.00;152774.31;5037166;28;21282;-78
2024/03/01 06:44:25;;;;;;;29.53;19.47;;;;;;;5.51;100.00;152778.19;5038495;28;20452;-77
2024/03/01 06:46:52;;;;;;;31.53;20.77;;;;;;;5.56;100.00;152788.50;5053880;28;20542;-78
2024/03/01 06:49:19;;;;;;;31.30;20.40;;;;;;;5.60;100.00;152798.81;5037126;28;20459;-78
2024/03/01 06:51:46;;;;;;;32.87;20.60;;;;;;;5.62;100.00;152803.97;5036955;28;20815;-78
2024/03/01 06:54:12;;;;;;;32.80;20.83;;;;;;;5.64;100.00;152809.16;5055158;28;20504;-78
2024/03/01 06:56:42;;;;;;;27.63;20.10;;;;;;;5.65;100.00;152813.00;5043312;28;20451;-78
2024/03/01 06:59:08;;;;;;;30.80;21.57;;;;;;;5.68;100.00;152820.75;5038916;28;20475;-78
2024/03/01 07:01:35;;;;;;;32.73;20.87;;;;;;;5.71;100.00;152828.47;5040524;28;20469;-78
2024/03/01 07:04:02;;;;;;;32.90;21.33;;;;;;;5.73;100.00;152833.63;5039828;28;22221;-77
2024/03/01 07:06:38;;;;;;;32.40;21.30;;;;;;;5.73;100.00;152833.63;5033895;28;20455;-78
2024/03/01 07:09:12;;;;;;;31.70;21.43;;;;;;;5.75;100.00;152838.78;5038067;28;20440;-78
2024/03/01 07:11:39;;;;;;;39.23;20.67;;;;;;;5.78;100.00;152846.53;5041772;28;21027;-78
2024/03/01 07:14:08;;;;;;;33.27;21.33;;;;;;;5.81;100.00;152854.28;5037452;28;20456;-78
2024/03/01 07:16:34;;;;;;;27.80;18.97;;;;;;;5.83;100.00;152859.41;5036674;28;20457;-78
2024/03/01 07:19:01;;;;;;;29.83;20.23;;;;;;;5.86;100.00;152867.22;5038589;28;20451;-78
2024/03/01 07:21:27;;;;;;;31.23;22.37;;;;;;;5.88;100.00;152871.06;5036960;28;20797;-78
2024/03/01 07:23:54;;;;;;;32.47;21.70;;;;;;;5.92;100.00;152882.69;5051385;28;20471;-77
2024/03/01 07:26:21;;;;;;;32.87;21.27;;;;;;;5.93;100.00;152885.25;5038643;28;20466;-77
2024/03/01 07:28:48;;;;;;;35.40;22.70;;;;;;;5.96;100.00;152893.00;5054171;28;20528;-78
2024/03/01 07:31:16;;;;;;;34.40;21.40;;;;;;;5.99;100.00;152900.75;5054457;28;20468;-77
2024/03/01 07:33:42;;;;;;;33.73;21.03;;;;;;;6.00;100.00;152903.34;5040357;28;20458;-78
2024/03/01 07:36:12;;;;;;;31.47;21.13;;;;;;;6.01;100.00;152905.88;5038395;28;20452;-78
2024/03/01 07:41:25;;;;;;;31.70;19.77;;;;;;;6.10;100.00;152929.13;5003125;28;20458;-78
2024/03/01 07:43:52;;;;;;;30.43;21.60;;;;;;;6.12;100.00;152934.28;5039102;28;20941;-78
2024/03/01 07:46:20;;;;;;;28.40;20.37;;;;;;;6.17;100.00;152944.63;5036155;28;20483;-77
2024/03/01 07:48:46;;;;;;;30.40;20.40;;;;;;;6.20;100.00;152952.31;5051957;28;20497;-78
2024/03/01 07:51:13;;;;;;;29.47;20.83;;;;;;;6.23;100.00;152961.38;5038265;28;20443;-78
2024/03/01 07:53:46;;;;;;;28.20;20.67;;;;;;;6.30;100.00;152978.16;5040684;28;20459;-77
2024/03/01 07:56:13;;;;;;;31.37;20.33;;;;;;;6.35;100.00;152991.06;5023752;28;20463;-77
2024/03/01 07:58:39;;;;;;;33.47;20.90;;;;;;;6.40;100.00;153003.97;5042685;28;20470;-77
2024/03/01 08:01:07;;;;;;;32.27;20.87;;;;;;;6.44;100.00;153014.28;5051478;28;20474;-78
2024/03/01 08:03:35;;;;;;;30.47;19.27;;;;;;;6.49;100.00;153027.16;5056480;28;21063;-77
2024/03/01 08:06:02;;;;;;;31.37;19.30;;;;;;;6.53;100.00;153037.50;5037986;28;20541;-77
2024/03/01 08:08:40;;;;;;;31.30;19.70;;;;;;;6.58;100.00;153050.41;5037694;28;20491;-77
2024/03/01 08:11:08;;;;;;;24.60;17.77;;;;;;;6.64;100.00;153065.91;5034506;28;20446;-77
2024/03/01 08:13:35;;;;;;;26.27;18.40;;;;;;;6.69;100.00;153078.81;5039947;28;21427;-77
2024/03/01 08:16:02;;;;;;;31.53;20.97;;;;;;;6.74;100.00;153091.72;5039158;28;20485;-77
2024/03/01 08:18:28;;;;;;;28.47;18.67;;;;;;;6.77;100.00;153099.47;5039367;28;20975;-77
2024/03/01 08:21:02;;;;;;;29.40;18.53;;;;;;;6.81;100.00;153108.47;5036727;28;20475;-78
2024/03/01 08:23:29;;;;;;;27.53;17.70;;;;;;;6.85;100.00;153120.13;5039155;28;20485;-77
2024/03/01 08:25:57;;;;;;;28.10;18.27;;;;;;;6.91;100.00;153134.34;5037708;28;20459;-77
2024/03/01 08:28:27;;;;;;;23.10;17.60;;;;;;;6.95;100.00;153145.94;5035633;28;21056;-77
2024/03/01 08:30:54;;;;;;;22.87;17.37;;;;;;;6.98;100.00;153153.69;5037299;28;20450;-78
2024/03/01 08:33:21;;;;;;;23.33;17.63;;;;;;;7.01;100.00;153161.44;5052126;28;20484;-78
2024/03/01 08:35:48;;;;;;;21.60;17.10;;;;;;;7.02;100.00;153164.00;5036339;28;20454;-77
2024/03/01 08:39:06;;;;;;;25.40;16.70;;;;;;;7.05;100.00;153171.75;5053764;28;20451;-78
2024/03/01 08:41:32;;;;;;;22.50;17.43;;;;;;;7.07;100.00;153176.91;5037460;28;20903;-77
2024/03/01 08:43:59;;;;;;;24.37;17.40;;;;;;;7.08;100.00;153179.50;5042070;28;20435;-77
2024/03/01 08:46:31;;;;;;;23.07;16.00;;;;;;;7.10;100.00;153183.34;5040642;28;20847;-77
2024/03/01 08:48:59;;;;;;;23.90;15.50;;;;;;;7.12;100.00;153188.56;5055964;28;21284;-77
2024/03/01 08:51:26;;;;;;;19.37;16.53;;;;;;;7.13;100.00;153192.41;5039119;28;20516;-77
2024/03/01 08:54:06;;;;;;;21.73;15.90;;;;;;;7.14;100.00;153195.00;5055787;28;20463;-77
2024/03/01 08:56:34;;;;;;;19.90;15.10;;;;;;;7.20;100.00;153210.47;5040785;28;20455;-76
2024/03/01 08:59:02;;;;;;;18.80;13.67;;;;;;;7.22;100.00;153214.38;5041449;28;20800;-76
2024/03/01 09:01:48;;;;;;;18.43;14.53;;;;;;;7.23;100.00;153216.91;5024753;28;20907;-77
2024/03/01 09:04:24;;;;;;;21.67;14.73;;;;;;;7.26;100.00;153225.97;5052744;28;20456;-78
2024/03/01 09:07:04;;;;;;;22.07;15.80;;;;;;;7.29;100.00;153232.44;5035424;28;20515;-78
2024/03/01 09:09:32;;;;;;;18.30;12.97;;;;;;;7.32;100.00;153240.19;5041964;28;20484;-78
2024/03/01 09:11:58;;;;;;;20.27;14.20;;;;;;;7.34;100.00;153246.63;5039399;28;20458;-78
2024/03/01 09:14:30;;;;;;;17.13;12.13;;;;;;;7.39;100.00;153257.00;5047235;28;20455;-78
2024/03/01 09:16:58;;;;;;;16.27;12.03;;;;;;;7.41;100.00;153262.16;5038315;28;20482;-78
2024/03/01 09:19:25;;;;;;;16.77;12.07;;;;;;;7.44;100.00;153271.16;5039856;28;20477;-79
2024/03/01 09:21:52;;;;;;;24.77;12.03;;;;;;;7.46;100.00;153275.06;5044147;28;20525;-78
2024/03/01 09:24:20;;;;;;;16.13;11.20;;;;;;;7.50;100.00;153285.38;5058095;28;22343;-78
2024/03/01 09:26:49;;;;;;;14.43;11.23;;;;;;;7.52;100.00;153290.56;5038953;28;20447;-77
2024/03/01 09:29:35;;;;;;;18.13;12.80;;;;;;;7.59;100.00;153308.63;5037707;28;20455;-78
2024/03/01 09:32:02;;;;;;;13.23;9.87;;;;;;;7.63;100.00;153318.94;5037001;28;20476;-77
2024/03/01 09:34:34;;;;;;;16.20;12.50;;;;;;;7.66;100.00;153328.00;5055495;28;20513;-77
2024/03/01 09:37:00;;;;;;;17.27;11.70;;;;;;;7.70;100.00;153338.38;5038647;28;20512;-78
2024/03/01 09:39:31;;;;;;;17.63;11.57;;;;;;;7.72;100.00;153343.53;5058460;28;20534;-78
2024/03/01 09:42:28;;;;;;;15.50;11.07;;;;;;;7.74;100.00;153347.38;5019397;28;21074;-77
2024/03/01 09:45:20;;;;;;;13.93;10.30;;;;;;;7.74;100.00;153347.38;5029976;28;21135;-77
2024/03/01 09:48:08;;;;;;;16.07;10.47;;;;;;;7.76;100.00;153352.53;5043594;28;20819;-77
2024/03/01 09:50:59;;;;;;;11.80;9.67;;;;;;;7.78;100.00;153358.97;5036930;28;20520;-77
2024/03/01 09:53:40;;;;;;;12.50;8.80;;;;;;;7.80;100.00;153362.88;5037695;28;20454;-76
2024/03/01 09:56:12;;;;;;;13.90;9.87;;;;;;;7.80;100.00;153364.19;5038061;28;20459;-76
2024/03/01 09:58:46;;;;;;;13.80;9.60;;;;;;;7.83;100.00;153371.94;5062488;28;20446;-77
2024/03/01 10:01:17;;;;;;;11.57;9.23;;;;;;;7.86;100.00;153379.66;5029898;28;20479;-77
2024/03/01 10:03:50;;;;;;;10.80;7.53;;;;;;;7.88;100.00;153383.56;5039555;28;20483;-76
2024/03/01 10:06:34;;;;;;;13.33;9.03;;;;;;;7.89;100.00;153387.41;5035870;28;20443;-78
2024/03/01 10:09:09;;;;;;;10.87;9.23;;;;;;;7.93;100.00;153397.78;5038844;28;20491;-77
2024/03/01 10:11:46;;;;;;;12.23;8.40;;;;;;;7.98;100.00;153409.41;5044689;28;20454;-78
2024/03/01 10:14:19;;;;;;;11.50;8.03;;;;;;;8.01;100.00;153417.16;5035379;28;20848;-78
2024/03/01 10:16:51;;;;;;;12.37;8.53;;;;;;;8.04;100.00;153424.91;5053418;28;20458;-77
2024/03/01 10:19:32;;;;;;;10.93;7.30;;;;;;;8.04;100.00;153424.91;5037570;28;20458;-77
2024/03/01 10:22:08;;;;;;;11.00;7.60;;;;;;;8.07;100.00;153431.38;5050144;28;20484;-77
2024/03/01 10:24:48;;;;;;;9.87;7.47;;;;;;;8.10;100.00;153439.13;5035404;28;20538;-78
2024/03/01 10:27:16;;;;;;;9.40;8.00;;;;;;;8.16;100.00;153455.91;5036528;28;20455;-78
2024/03/01 10:29:57;;;;;;;9.73;6.90;;;;;;;8.20;100.00;153466.28;5051828;28;20493;-78
2024/03/01 10:32:30;;;;;;;10.93;8.30;;;;;;;8.24;100.00;153476.59;5035769;28;20447;-79
2024/03/01 10:35:01;;;;;;;11.20;7.47;;;;;;;8.28;100.00;153487.00;5049992;28;20444;-77
2024/03/01 10:37:35;;;;;;;12.00;8.20;;;;;;;8.34;100.00;153502.47;5038074;28;20482;-77
2024/03/01 10:40:08;;;;;;;9.83;7.87;;;;;;;8.37;100.00;153510.22;5037118;28;20477;-78
2024/03/01 10:42:36;;;;;;;10.87;8.80;;;;;;;8.42;100.00;153521.84;5051750;28;20470;-77
2024/03/01 10:45:07;;;;;;;9.97;6.90;;;;;;;8.47;100.00;153536.06;5036980;28;20455;-78
2024/03/01 10:47:34;;;;;;;10.30;7.67;;;;;;;8.52;100.00;153547.75;5037770;28;20563;-77
2024/03/01 10:50:09;;;;;;;8.50;6.73;;;;;;;8.57;100.00;153560.66;5053231;28;20827;-78
2024/03/01 10:52:38;;;;;;;14.70;9.50;;;;;;;8.61;100.00;153570.97;5035103;28;20957;-78
2024/03/01 10:55:07;;;;;;;9.50;7.10;;;;;;;8.67;100.00;153586.50;5036638;28;20455;-78
2024/03/01 10:57:35;;;;;;;9.20;6.93;;;;;;;8.67;100.00;153586.50;5037532;28;20568;-77
2024/03/01 11:00:12;;;;;;;11.53;8.40;;;;;;;8.70;100.00;153592.97;5034493;28;20574;-78
2024/03/01 11:02:41;;;;;;;12.30;8.50;;;;;;;8.75;100.00;153605.91;5051024;28;20461;-78
2024/03/01 11:05:12;;;;;;;12.93;8.17;;;;;;;8.80;100.00;153618.81;5050655;28;20540;-77
2024/03/01 11:07:46;;;;;;;10.73;8.33;;;;;;;8.82;100.00;153625.28;5036669;28;20890;-78
2024/03/01 11:10:16;;;;;;;9.80;7.17;;;;;;;8.91;100.00;153647.28;5032564;28;20448;-76
2024/03/01 11:12:50;;;;;;;9.87;7.10;;;;;;;8.95;100.00;153657.59;5034680;28;20886;-76
2024/03/01 11:15:20;;;;;;;10.67;8.13;;;;;;;8.98;100.00;153666.66;5038065;28;20446;-76
2024/03/01 11:17:50;;;;;;;10.20;7.67;;;;;;;9.03;100.00;153678.28;5039036;28;20451;-77
2024/03/01 11:20:21;;;;;;;11.00;8.37;;;;;;;9.09;100.00;153693.81;5051959;28;20458;-76
2024/03/01 11:22:51;;;;;;;14.83;8.77;;;;;;;9.13;100.00;153705.44;5037019;28;20453;-77
2024/03/01 11:25:20;;;;;;;10.20;8.30;;;;;;;9.20;100.00;153722.28;5050483;28;20447;-77